Time;durP1;ratioP1;P1;durP2;ratioP2;P2;SDS_P1;SDS_P2;PMS_P1;PMS_P2;Temp;Humidity;BMP_temperature;BMP_pressure;BME280_temperature;BME280_humidity;BME280_pressure;Samples;Min_cycle;Max_cycle;Signal;HPM_P1;HPM_P2
2022/05/18 00:01:11;;;;;;;11.50;10.43;;;18.30;99.90;;;;;;5069730;28;20484;-80
2022/05/18 00:03:40;;;;;;;11.87;10.77;;;18.30;99.90;;;;;;5061028;28;20457;-81
2022/05/18 00:06:08;;;;;;;10.73;9.80;;;18.40;99.90;;;;;;5072035;28;20488;-80
2022/05/18 00:08:36;;;;;;;12.67;11.47;;;18.20;99.90;;;;;;5069091;28;20521;-79
2022/05/18 00:11:07;;;;;;;11.43;10.43;;;18.20;99.90;;;;;;5065082;28;20950;-79
2022/05/18 00:13:34;;;;;;;13.30;12.03;;;18.20;99.90;;;;;;5073178;28;20438;-80
2022/05/18 00:16:01;;;;;;;11.87;9.77;;;18.20;99.90;;;;;;5066927;28;21166;-81
2022/05/18 00:18:28;;;;;;;10.90;9.80;;;18.10;99.90;;;;;;5064951;28;20670;-81
2022/05/18 00:20:55;;;;;;;11.27;10.20;;;18.20;99.90;;;;;;5077038;28;20469;-81
2022/05/18 00:23:22;;;;;;;10.83;9.93;;;18.10;99.90;;;;;;5056623;28;20460;-80
2022/05/18 00:25:49;;;;;;;13.43;10.77;;;18.10;99.90;;;;;;5070726;28;20446;-80
2022/05/18 00:28:17;;;;;;;10.90;9.80;;;18.10;99.90;;;;;;5063736;28;20553;-79
2022/05/18 00:30:45;;;;;;;11.70;10.40;;;18.10;99.90;;;;;;5070906;28;20494;-77
2022/05/18 00:33:13;;;;;;;10.80;9.80;;;18.00;99.90;;;;;;5065985;28;20458;-78
2022/05/18 00:35:41;;;;;;;11.60;10.40;;;18.10;99.90;;;;;;5071956;28;20444;-79
2022/05/18 00:38:09;;;;;;;11.30;10.30;;;18.00;99.90;;;;;;5070400;28;20469;-78
2022/05/18 00:40:37;;;;;;;12.13;10.90;;;18.00;99.90;;;;;;5062661;28;20520;-80
2022/05/18 00:43:05;;;;;;;10.10;9.20;;;18.10;99.90;;;;;;5062600;28;20557;-78
2022/05/18 00:45:33;;;;;;;12.73;11.63;;;18.10;99.90;;;;;;5064256;28;20532;-79
2022/05/18 00:48:00;;;;;;;10.80;9.80;;;18.00;99.90;;;;;;5061555;28;20556;-80
2022/05/18 00:50:33;;;;;;;11.90;10.70;;;18.20;99.90;;;;;;5065930;28;20514;-80
2022/05/18 00:53:05;;;;;;;14.40;11.23;;;18.10;99.90;;;;;;5065634;28;20446;-80
2022/05/18 00:55:35;;;;;;;13.70;11.63;;;18.00;99.90;;;;;;5067630;28;20461;-80
2022/05/18 00:58:08;;;;;;;11.90;10.70;;;18.10;99.90;;;;;;5053795;28;20542;-82
2022/05/18 01:00:39;;;;;;;12.60;10.50;;;18.20;99.90;;;;;;5060841;28;20485;-80
2022/05/18 01:03:11;;;;;;;13.67;12.20;;;18.10;99.90;;;;;;5069829;28;20529;-79
2022/05/18 01:05:42;;;;;;;11.63;10.53;;;18.10;99.90;;;;;;5062862;28;20514;-77
2022/05/18 01:08:11;;;;;;;13.77;12.00;;;18.10;99.90;;;;;;5060446;28;20482;-79
2022/05/18 01:10:38;;;;;;;12.50;11.40;;;18.10;99.90;;;;;;5063431;28;20540;-79
2022/05/18 01:13:06;;;;;;;13.07;10.10;;;18.10;99.90;;;;;;5063188;28;20812;-80
2022/05/18 01:15:33;;;;;;;12.97;11.60;;;18.10;99.90;;;;;;5073512;28;20466;-80
2022/05/18 01:18:02;;;;;;;12.77;11.57;;;18.10;99.90;;;;;;5063876;28;20496;-80
2022/05/18 01:20:33;;;;;;;12.47;11.30;;;18.10;99.90;;;;;;5073122;28;20883;-80
2022/05/18 01:23:19;;;;;;;12.13;11.03;;;18.20;99.90;;;;;;5059925;28;20455;-80
2022/05/18 01:26:00;;;;;;;13.67;12.37;;;18.10;99.90;;;;;;5065934;28;20477;-77
2022/05/18 01:28:33;;;;;;;14.80;12.30;;;18.10;99.90;;;;;;5066948;28;20477;-80
2022/05/18 01:31:03;;;;;;;13.20;11.90;;;18.20;99.90;;;;;;5065775;28;20479;-80
2022/05/18 01:33:30;;;;;;;14.70;13.20;;;18.10;99.90;;;;;;5062466;28;20843;-81
2022/05/18 01:35:57;;;;;;;13.60;12.17;;;18.00;99.90;;;;;;5062631;28;20919;-79
2022/05/18 01:38:24;;;;;;;12.30;11.17;;;18.00;99.90;;;;;;5070656;28;20533;-80
2022/05/18 01:40:59;;;;;;;12.80;11.60;;;18.10;99.90;;;;;;5060054;28;20572;-79
2022/05/18 01:43:30;;;;;;;15.30;12.17;;;18.10;99.90;;;;;;5059197;28;20450;-79
2022/05/18 01:46:00;;;;;;;15.07;11.87;;;18.10;99.90;;;;;;5061047;28;20868;-79
2022/05/18 01:48:32;;;;;;;13.73;12.27;;;18.20;99.90;;;;;;5061856;28;20912;-78
2022/05/18 01:51:00;;;;;;;13.10;11.70;;;18.00;99.90;;;;;;5060144;28;20437;-79
2022/05/18 01:53:27;;;;;;;13.67;12.27;;;18.00;99.90;;;;;;5065120;28;20455;-78
2022/05/18 01:55:54;;;;;;;13.97;12.67;;;18.00;99.90;;;;;;5064178;28;20564;-81
2022/05/18 01:58:22;;;;;;;13.00;11.70;;;18.00;99.90;;;;;;5064123;28;20468;-78
2022/05/18 02:00:51;;;;;;;16.53;13.27;;;18.00;99.90;;;;;;5062239;28;20486;-81
2022/05/18 02:03:20;;;;;;;15.10;13.50;;;18.00;99.90;;;;;;5065733;28;20469;-78
2022/05/18 02:05:47;;;;;;;15.27;12.83;;;18.00;99.90;;;;;;5069089;28;20789;-79
2022/05/18 02:08:16;;;;;;;13.97;12.50;;;18.00;99.90;;;;;;5066056;28;20480;-79
2022/05/18 02:10:44;;;;;;;14.30;12.90;;;18.00;99.90;;;;;;5063416;28;20450;-80
2022/05/18 02:13:11;;;;;;;13.50;12.10;;;18.00;99.90;;;;;;5062826;28;20540;-82
2022/05/18 02:15:38;;;;;;;14.40;13.00;;;18.00;99.90;;;;;;5061711;28;20446;-79
2022/05/18 02:18:06;;;;;;;15.50;13.90;;;17.90;99.90;;;;;;5062695;28;20561;-79
2022/05/18 02:20:34;;;;;;;14.03;12.50;;;17.90;99.90;;;;;;5070055;28;20780;-80
2022/05/18 02:23:01;;;;;;;18.43;14.10;;;17.90;99.90;;;;;;5069636;28;20474;-80
2022/05/18 02:25:28;;;;;;;14.80;13.27;;;18.00;99.90;;;;;;5064758;28;20449;-78
2022/05/18 02:27:56;;;;;;;15.03;13.50;;;17.90;99.90;;;;;;5064255;28;20530;-80
2022/05/18 02:30:23;;;;;;;15.93;14.30;;;17.90;99.90;;;;;;5059919;28;20460;-80
2022/05/18 02:32:50;;;;;;;15.90;14.33;;;17.90;99.90;;;;;;5063692;28;20485;-78
2022/05/18 02:35:18;;;;;;;14.70;13.27;;;17.80;99.90;;;;;;5059385;28;20453;-78
2022/05/18 02:37:45;;;;;;;16.90;14.60;;;17.80;99.90;;;;;;5059468;28;20566;-76
2022/05/18 02:40:13;;;;;;;15.87;14.10;;;17.80;99.90;;;;;;5070315;28;20577;-80
2022/05/18 02:42:39;;;;;;;14.47;13.00;;;17.80;99.90;;;;;;5064980;28;20474;-78
2022/05/18 02:45:08;;;;;;;16.53;14.90;;;17.80;99.90;;;;;;5060750;28;20496;-79
2022/05/18 02:47:35;;;;;;;16.07;14.40;;;17.80;99.90;;;;;;5070576;28;20545;-79
2022/05/18 02:50:02;;;;;;;16.30;14.80;;;17.70;99.90;;;;;;5070241;28;20470;-81
2022/05/18 02:52:31;;;;;;;13.90;12.63;;;17.80;99.90;;;;;;5065540;28;20445;-80
2022/05/18 02:57:42;;;;;;;16.73;14.97;;;17.60;99.90;;;;;;5068889;28;20460;-79
2022/05/18 03:00:10;;;;;;;16.07;14.33;;;17.60;99.90;;;;;;5068737;28;20485;-80
2022/05/18 03:02:37;;;;;;;15.53;14.17;;;17.60;99.90;;;;;;5072711;28;20461;-78
2022/05/18 03:05:04;;;;;;;18.45;16.65;;;17.60;99.90;;;;;;5069905;28;20445;-79
2022/05/18 03:07:33;;;;;;;17.20;15.70;;;17.50;99.90;;;;;;5065407;28;20252;-80
2022/05/18 03:09:59;;;;;;;18.13;16.20;;;17.50;99.90;;;;;;5066553;28;20943;-80
2022/05/18 03:12:27;;;;;;;16.63;15.13;;;17.40;99.90;;;;;;5065635;28;20512;-79
2022/05/18 03:14:53;;;;;;;17.47;15.67;;;17.40;99.90;;;;;;5062945;28;20445;-81
2022/05/18 03:17:20;;;;;;;20.07;17.17;;;17.50;99.90;;;;;;5062376;28;20507;-80
2022/05/18 03:19:47;;;;;;;17.40;15.70;;;17.40;99.90;;;;;;5062520;28;21057;-80
2022/05/18 03:25:09;;;;;;;17.37;15.67;;;17.50;99.90;;;;;;5038387;28;20441;-80
2022/05/18 03:27:40;;;;;;;19.53;17.43;;;17.40;99.90;;;;;;5068278;28;20554;-80
2022/05/18 03:30:08;;;;;;;18.30;16.37;;;17.50;99.90;;;;;;5065389;28;20472;-80
2022/05/18 03:32:35;;;;;;;17.17;15.27;;;17.50;99.90;;;;;;5062419;28;20463;-80
2022/05/18 03:35:02;;;;;;;16.90;15.07;;;17.50;99.90;;;;;;5064104;28;20215;-79
2022/05/18 03:37:28;;;;;;;17.10;15.43;;;17.50;99.90;;;;;;5061816;28;20500;-78
2022/05/18 03:39:55;;;;;;;16.58;14.98;;;17.40;99.90;;;;;;5074281;28;20589;-78
2022/05/18 03:42:24;;;;;;;18.30;16.50;;;17.50;99.90;;;;;;5062130;28;20207;-80
2022/05/18 03:44:50;;;;;;;18.23;16.33;;;17.50;99.90;;;;;;5062733;28;20528;-80
2022/05/18 03:47:17;;;;;;;18.83;16.93;;;17.50;99.90;;;;;;5066449;28;20285;-78
2022/05/18 03:49:44;;;;;;;19.80;17.70;;;17.50;99.90;;;;;;5067718;28;20556;-80
2022/05/18 03:52:11;;;;;;;17.50;15.93;;;17.40;99.90;;;;;;5063941;28;20466;-79
2022/05/18 03:54:38;;;;;;;18.23;16.50;;;17.50;99.90;;;;;;5062892;28;20533;-79
2022/05/18 03:57:08;;;;;;;20.13;16.10;;;17.50;99.90;;;;;;5074934;28;20458;-78
2022/05/18 03:59:36;;;;;;;18.67;16.77;;;17.50;99.90;;;;;;5060572;28;20449;-80
2022/05/18 04:02:07;;;;;;;16.90;15.40;;;17.50;99.90;;;;;;5061782;28;20464;-79
2022/05/18 04:04:34;;;;;;;19.03;17.10;;;17.50;99.90;;;;;;5065896;28;21113;-80
2022/05/18 04:07:01;;;;;;;17.97;16.27;;;17.50;99.90;;;;;;5062806;28;20472;-79
2022/05/18 04:09:29;;;;;;;21.90;16.43;;;17.50;99.90;;;;;;5061604;28;20453;-80
2022/05/18 04:11:56;;;;;;;17.47;15.97;;;17.70;99.90;;;;;;5051744;28;20781;-80
2022/05/18 04:14:24;;;;;;;18.90;17.10;;;17.60;99.90;;;;;;5071237;28;20460;-81
2022/05/18 04:16:52;;;;;;;19.13;17.33;;;17.80;99.90;;;;;;5063209;28;20493;-78
2022/05/18 04:19:19;;;;;;;17.20;15.60;;;17.60;99.90;;;;;;5074689;28;20784;-78
2022/05/18 04:21:46;;;;;;;19.13;17.33;;;17.70;99.90;;;;;;5067888;28;20541;-78
2022/05/18 04:24:13;;;;;;;18.97;17.17;;;17.60;99.90;;;;;;5063523;28;20820;-80
2022/05/18 04:26:40;;;;;;;17.13;15.27;;;17.60;99.90;;;;;;5062092;28;20557;-78
2022/05/18 04:29:07;;;;;;;24.67;18.17;;;17.60;99.90;;;;;;5070243;28;20452;-79
2022/05/18 04:31:34;;;;;;;20.17;18.27;;;17.70;99.90;;;;;;5064083;28;21015;-79
2022/05/18 04:34:02;;;;;;;19.70;17.70;;;17.70;99.90;;;;;;5066135;28;20508;-80
2022/05/18 04:36:29;;;;;;;19.53;17.47;;;17.70;99.90;;;;;;5074064;28;20480;-79
2022/05/18 04:38:55;;;;;;;19.37;17.47;;;17.70;99.90;;;;;;5065248;28;20452;-81
2022/05/18 04:41:28;;;;;;;17.90;16.20;;;17.70;99.90;;;;;;5067058;28;20529;-81
2022/05/18 04:43:55;;;;;;;20.53;17.90;;;17.90;99.90;;;;;;5075682;28;20458;-78
2022/05/18 04:46:22;;;;;;;20.37;18.37;;;17.80;99.90;;;;;;5061072;28;20450;-80
2022/05/18 04:48:49;;;;;;;19.10;17.07;;;17.80;99.90;;;;;;5064149;28;20489;-78
2022/05/18 04:51:18;;;;;;;19.27;17.27;;;17.70;99.90;;;;;;5063690;28;20458;-77
2022/05/18 04:53:45;;;;;;;18.73;16.80;;;17.80;99.90;;;;;;5076932;28;20476;-80
2022/05/18 04:56:11;;;;;;;19.30;17.30;;;17.80;99.90;;;;;;5066820;28;20461;-79
2022/05/18 04:58:38;;;;;;;21.13;18.43;;;17.80;99.90;;;;;;5072384;28;20452;-78
2022/05/18 05:01:08;;;;;;;18.20;16.30;;;17.80;99.90;;;;;;5065042;28;20491;-79
2022/05/18 05:03:35;;;;;;;18.90;17.00;;;17.70;99.90;;;;;;5066644;28;20485;-81
2022/05/18 05:06:03;;;;;;;25.67;18.70;;;17.70;99.90;;;;;;5079020;28;20474;-79
2022/05/18 05:08:35;;;;;;;18.03;16.33;;;17.80;99.90;;;;;;5090227;28;20455;-80
2022/05/18 05:11:02;;;;;;;18.53;16.77;;;17.80;99.90;;;;;;5079797;28;20430;-80
2022/05/18 05:13:29;;;;;;;24.47;18.00;;;17.90;99.90;;;;;;5078260;28;20468;-80
2022/05/18 05:16:04;;;;;;;18.93;16.87;;;17.90;99.90;;;;;;5078016;28;20501;-82
2022/05/18 05:18:34;;;;;;;19.00;17.20;;;17.90;99.90;;;;;;5078436;28;20467;-80
2022/05/18 05:21:03;;;;;;;18.93;17.13;;;18.10;99.90;;;;;;5081778;28;20462;-82
2022/05/18 05:23:32;;;;;;;19.30;17.30;;;18.50;99.90;;;;;;5085513;28;20456;-80
2022/05/18 05:26:00;;;;;;;17.17;15.37;;;19.10;99.90;;;;;;5075625;28;20442;-79
2022/05/18 05:28:28;;;;;;;18.60;16.70;;;19.40;99.90;;;;;;5071047;28;20474;-79
2022/05/18 05:30:55;;;;;;;20.43;18.23;;;19.40;99.90;;;;;;5070998;28;20450;-80
2022/05/18 05:33:22;;;;;;;19.30;17.33;;;19.40;99.90;;;;;;5066323;28;20448;-78
2022/05/18 05:35:49;;;;;;;18.57;16.50;;;19.70;99.90;;;;;;5064699;28;20820;-80
2022/05/18 05:38:16;;;;;;;16.93;15.23;;;20.60;99.90;;;;;;5078663;28;20483;-78
2022/05/18 05:40:44;;;;;;;16.20;14.60;;;21.70;99.90;;;;;;5083927;28;20482;-79
2022/05/18 05:43:13;;;;;;;16.17;14.57;;;22.70;99.90;;;;;;5069160;28;20784;-80
2022/05/18 05:45:40;;;;;;;15.37;13.60;;;23.30;99.90;;;;;;5066568;28;20465;-79
2022/05/18 05:48:10;;;;;;;16.30;14.63;;;24.00;99.90;;;;;;5066640;28;20474;-81
2022/05/18 05:50:37;;;;;;;13.80;12.50;;;24.80;99.90;;;;;;5063101;28;20445;-79
2022/05/18 05:53:04;;;;;;;14.73;13.30;;;25.20;99.90;;;;;;5062852;28;20505;-79
2022/05/18 05:55:31;;;;;;;13.63;12.43;;;25.60;99.90;;;;;;5065840;28;20522;-80
2022/05/18 05:57:59;;;;;;;14.37;13.07;;;25.90;99.90;;;;;;5062739;28;20470;-80
2022/05/18 06:00:26;;;;;;;14.03;12.67;;;26.20;99.90;;;;;;5064239;28;20459;-79
2022/05/18 06:02:53;;;;;;;16.33;14.60;;;26.60;99.00;;;;;;5064228;28;20976;-81
2022/05/18 06:05:20;;;;;;;15.40;13.80;;;26.40;98.00;;;;;;5066851;28;20995;-81
2022/05/18 06:07:47;;;;;;;13.40;12.20;;;26.60;98.00;;;;;;5064440;28;20469;-81
2022/05/18 06:10:14;;;;;;;13.27;12.17;;;27.10;96.60;;;;;;5062645;28;20470;-81
2022/05/18 06:12:41;;;;;;;13.70;12.30;;;26.70;96.90;;;;;;5062847;28;21016;-81
2022/05/18 06:15:11;;;;;;;14.33;12.97;;;26.30;97.70;;;;;;5065026;28;20472;-80
2022/05/18 06:17:38;;;;;;;12.63;11.47;;;25.80;99.40;;;;;;5078063;28;20544;-79
2022/05/18 06:20:06;;;;;;;15.43;13.83;;;25.90;99.90;;;;;;5064817;28;20946;-79
2022/05/18 06:22:32;;;;;;;13.30;12.00;;;26.70;98.10;;;;;;5066520;28;20554;-79
2022/05/18 06:24:59;;;;;;;14.97;13.40;;;27.30;96.00;;;;;;5063649;28;20442;-81
2022/05/18 06:27:26;;;;;;;14.37;12.97;;;27.70;95.00;;;;;;5063094;28;20554;-80
2022/05/18 06:29:53;;;;;;;12.73;11.63;;;28.20;93.90;;;;;;5064604;28;20446;-81
2022/05/18 06:32:21;;;;;;;15.17;13.60;;;28.60;93.10;;;;;;5062514;28;20446;-79
2022/05/18 06:34:49;;;;;;;12.50;11.20;;;28.80;92.30;;;;;;5062726;28;20446;-82
2022/05/18 06:37:16;;;;;;;13.13;11.47;;;29.30;91.30;;;;;;5062013;28;20549;-81
2022/05/18 06:39:43;;;;;;;11.97;10.97;;;29.10;91.20;;;;;;5060718;28;20442;-81
2022/05/18 06:42:10;;;;;;;12.93;11.57;;;29.70;90.30;;;;;;5063350;28;20492;-81
2022/05/18 06:44:37;;;;;;;15.87;11.60;;;29.30;89.50;;;;;;5061563;28;20521;-79
2022/05/18 06:47:05;;;;;;;11.23;10.23;;;29.50;89.90;;;;;;5061813;28;20564;-79
2022/05/18 06:49:33;;;;;;;11.97;10.87;;;29.80;89.30;;;;;;5059611;28;20518;-80
2022/05/18 06:52:00;;;;;;;11.90;10.67;;;30.40;88.00;;;;;;5062259;28;20492;-82
2022/05/18 06:54:27;;;;;;;12.03;9.90;;;30.30;86.40;;;;;;5060568;28;20521;-81
2022/05/18 06:56:54;;;;;;;16.40;9.70;;;31.10;85.40;;;;;;5073496;28;20474;-81
2022/05/18 06:59:21;;;;;;;11.70;10.50;;;30.60;85.00;;;;;;5072813;28;20443;-80
2022/05/18 07:01:47;;;;;;;10.50;8.33;;;30.20;85.60;;;;;;5066231;28;20496;-80
2022/05/18 07:04:14;;;;;;;10.73;9.03;;;30.60;85.00;;;;;;5067320;28;20505;-80
2022/05/18 07:06:45;;;;;;;9.77;8.87;;;31.00;83.40;;;;;;5066401;28;20470;-80
2022/05/18 07:09:13;;;;;;;13.37;10.10;;;30.90;82.80;;;;;;5067030;28;20512;-81
2022/05/18 07:11:41;;;;;;;10.10;9.00;;;31.20;82.10;;;;;;5065640;28;20517;-78
2022/05/18 07:14:08;;;;;;;10.37;9.37;;;31.00;82.50;;;;;;5066041;28;20482;-79
2022/05/18 07:16:35;;;;;;;10.77;9.73;;;31.20;81.50;;;;;;5071594;28;20537;-80
2022/05/18 07:19:03;;;;;;;11.57;9.10;;;31.50;81.20;;;;;;5068449;28;20484;-81
2022/05/18 07:21:29;;;;;;;10.40;9.40;;;31.00;80.80;;;;;;5064071;28;20545;-80
2022/05/18 07:23:58;;;;;;;9.90;9.10;;;29.80;83.20;;;;;;5061109;28;20498;-80
2022/05/18 07:26:26;;;;;;;8.73;7.93;;;30.10;84.40;;;;;;5062162;28;20532;-81
2022/05/18 07:28:53;;;;;;;9.70;8.80;;;30.60;83.50;;;;;;5076295;28;20461;-82
2022/05/18 07:31:20;;;;;;;9.70;8.80;;;30.30;83.10;;;;;;5076400;28;20445;-81
2022/05/18 07:33:48;;;;;;;9.73;8.93;;;31.10;82.30;;;;;;5076476;28;20449;-81
2022/05/18 07:36:15;;;;;;;9.07;7.10;;;31.30;80.70;;;;;;5076548;28;20473;-82
2022/05/18 07:38:43;;;;;;;9.10;8.20;;;31.30;78.80;;;;;;5076545;28;20465;-82
2022/05/18 07:41:14;;;;;;;7.57;6.80;;;31.30;79.30;;;;;;5078106;28;20473;-82
2022/05/18 07:43:41;;;;;;;9.40;7.40;;;31.90;79.40;;;;;;5079070;28;20460;-80
2022/05/18 07:46:09;;;;;;;10.03;7.20;;;32.80;76.80;;;;;;5072636;28;20485;-82
2022/05/18 07:48:37;;;;;;;11.90;7.93;;;33.80;74.80;;;;;;5065402;28;20618;-81
2022/05/18 07:51:05;;;;;;;8.57;6.70;;;33.70;73.50;;;;;;5069104;28;20485;-81
2022/05/18 07:53:31;;;;;;;8.90;7.87;;;34.50;72.30;;;;;;5069576;28;20472;-81
2022/05/18 07:55:58;;;;;;;8.87;7.07;;;33.70;72.70;;;;;;5071433;28;20446;-79
2022/05/18 07:58:26;;;;;;;7.40;6.80;;;33.80;71.60;;;;;;5074322;28;20979;-79
2022/05/18 08:00:53;;;;;;;7.90;7.20;;;34.00;71.20;;;;;;5072229;28;20476;-79
2022/05/18 08:03:20;;;;;;;7.17;6.57;;;34.30;70.40;;;;;;5073134;28;20505;-79
2022/05/18 08:05:47;;;;;;;7.93;7.13;;;34.00;70.60;;;;;;5076016;28;20450;-81
2022/05/18 08:08:16;;;;;;;7.37;5.97;;;34.40;70.60;;;;;;5073647;28;20466;-79
2022/05/18 08:16:15;;;;;;;9.07;6.93;;;34.50;68.80;;;;;;5072716;28;20429;-79
2022/05/18 08:18:42;;;;;;;7.80;7.03;;;34.50;69.20;;;;;;5081761;28;20509;-80
2022/05/18 08:21:09;;;;;;;8.33;7.53;;;34.70;68.90;;;;;;5073061;28;20466;-79
2022/05/18 08:23:36;;;;;;;9.33;7.47;;;34.40;68.60;;;;;;5070032;28;20450;-81
2022/05/18 08:26:03;;;;;;;9.10;8.20;;;33.70;70.10;;;;;;5065804;28;20829;-80
2022/05/18 08:28:32;;;;;;;6.80;5.90;;;33.90;70.00;;;;;;5065282;28;20466;-80
2022/05/18 08:30:59;;;;;;;8.20;7.40;;;33.90;70.60;;;;;;5068402;28;20491;-82
2022/05/18 08:33:28;;;;;;;8.60;6.00;;;34.50;69.90;;;;;;5070631;28;20932;-79
2022/05/18 08:35:55;;;;;;;7.40;6.57;;;34.90;68.30;;;;;;5065375;28;20478;-81
2022/05/18 08:38:22;;;;;;;8.30;7.40;;;34.80;68.50;;;;;;5065691;28;20478;-82
2022/05/18 08:40:52;;;;;;;8.87;7.73;;;34.80;68.30;;;;;;5066873;28;20485;-81
2022/05/18 08:43:25;;;;;;;9.20;6.73;;;34.70;67.80;;;;;;5066254;28;20512;-80
2022/05/18 08:46:03;;;;;;;9.33;6.73;;;34.70;68.50;;;;;;5064672;28;20460;-81
2022/05/18 08:48:42;;;;;;;10.03;6.70;;;35.00;67.70;;;;;;5065683;28;20469;-80
2022/05/18 08:51:23;;;;;;;6.10;5.40;;;34.50;68.00;;;;;;5065188;28;20456;-81
2022/05/18 08:53:58;;;;;;;6.90;6.10;;;35.00;67.60;;;;;;5066419;28;20469;-80
2022/05/18 08:56:29;;;;;;;9.20;5.67;;;35.20;67.30;;;;;;5065820;28;20448;-82
2022/05/18 08:58:56;;;;;;;7.97;5.17;;;35.50;66.90;;;;;;5065662;28;20446;-79
2022/05/18 09:01:34;;;;;;;5.33;4.40;;;35.10;67.20;;;;;;5063940;28;21006;-80
2022/05/18 09:04:09;;;;;;;13.10;5.80;;;35.50;65.60;;;;;;5063941;28;20529;-79
2022/05/18 09:06:40;;;;;;;5.30;4.50;;;35.00;66.10;;;;;;5064877;28;20541;-81
2022/05/18 09:11:55;;;;;;;6.27;3.87;;;34.70;65.10;;;;;;5063960;28;20425;-81
2022/05/18 09:14:25;;;;;;;6.03;4.90;;;35.20;65.60;;;;;;5063703;28;20453;-81
2022/05/18 09:17:05;;;;;;;4.33;4.00;;;35.10;64.30;;;;;;5063292;28;20528;-81
2022/05/18 09:19:41;;;;;;;6.30;4.53;;;35.10;63.10;;;;;;5067565;28;20449;-80
2022/05/18 09:22:21;;;;;;;5.13;4.17;;;35.00;64.30;;;;;;5064916;28;20504;-81
2022/05/18 09:24:59;;;;;;;4.23;3.50;;;35.30;63.30;;;;;;5072703;28;20452;-80
2022/05/18 09:27:53;;;;;;;8.47;5.17;;;35.40;63.10;;;;;;5069368;28;20465;-80
2022/05/18 09:30:27;;;;;;;4.77;3.53;;;35.80;62.10;;;;;;5067400;28;20460;-81
2022/05/18 09:33:15;;;;;;;5.63;3.70;;;34.80;62.60;;;;;;5075606;28;20431;-79
2022/05/18 09:35:56;;;;;;;7.07;4.20;;;34.80;63.30;;;;;;5068836;28;20495;-80
2022/05/18 09:38:33;;;;;;;4.13;3.73;;;34.90;62.60;;;;;;5078636;28;20525;-80
2022/05/18 09:41:02;;;;;;;6.37;4.40;;;35.70;62.10;;;;;;5082670;28;20445;-81
2022/05/18 09:43:36;;;;;;;5.80;4.00;;;35.80;61.60;;;;;;5078341;28;20538;-81
2022/05/18 09:46:05;;;;;;;5.23;4.10;;;35.30;62.50;;;;;;5072670;28;20517;-82
2022/05/18 09:48:40;;;;;;;5.80;4.57;;;34.50;63.80;;;;;;5075854;28;20473;-81
2022/05/18 09:51:09;;;;;;;8.40;4.70;;;34.80;63.80;;;;;;5082050;28;20631;-82
2022/05/18 09:53:36;;;;;;;9.23;4.17;;;34.40;64.40;;;;;;5074184;28;20436;-80
2022/05/18 09:56:07;;;;;;;6.17;3.77;;;35.00;65.20;;;;;;5073430;28;20514;-81
2022/05/18 09:58:36;;;;;;;5.90;4.77;;;35.80;63.40;;;;;;5080944;28;20469;-81
2022/05/18 10:09:41;;;;;;;6.33;4.30;;;34.30;63.90;;;;;;5071783;28;20421;-81
2022/05/18 10:12:13;;;;;;;5.97;3.97;;;34.80;64.50;;;;;;5083984;28;20957;-81
2022/05/18 10:14:40;;;;;;;5.90;4.43;;;34.90;63.90;;;;;;5075510;28;20938;-81
2022/05/18 10:17:10;;;;;;;7.80;4.10;;;34.00;64.10;;;;;;5069882;28;20553;-82
2022/05/18 10:19:45;;;;;;;7.67;3.90;;;33.90;66.00;;;;;;5081921;28;20489;-82
2022/05/18 10:22:19;;;;;;;7.77;4.40;;;33.30;67.00;;;;;;5080595;28;20463;-82
2022/05/18 10:24:52;;;;;;;5.93;4.17;;;33.60;66.70;;;;;;5076463;28;20462;-81
2022/05/18 10:27:25;;;;;;;6.70;4.70;;;33.60;67.40;;;;;;5074873;28;20513;-82
2022/05/18 10:30:03;;;;;;;4.80;4.10;;;33.60;66.60;;;;;;5073858;28;20456;-81
2022/05/18 10:32:31;;;;;;;5.00;4.53;;;33.10;67.90;;;;;;5059509;28;20521;-79
2022/05/18 10:35:01;;;;;;;8.43;4.77;;;32.90;68.20;;;;;;5068298;28;20465;-79
2022/05/18 10:37:31;;;;;;;4.97;4.07;;;33.00;68.40;;;;;;5066711;28;20466;-80
2022/05/18 10:40:02;;;;;;;9.00;3.90;;;32.30;70.50;;;;;;5071492;28;20524;-81
2022/05/18 10:42:31;;;;;;;7.23;3.93;;;32.20;71.20;;;;;;5078626;28;20496;-79
2022/05/18 10:45:01;;;;;;;7.83;4.37;;;31.90;72.60;;;;;;5069908;28;20509;-82
2022/05/18 10:47:31;;;;;;;5.33;4.13;;;31.60;72.80;;;;;;5079312;28;20487;-80
2022/05/18 10:50:26;;;;;;;5.90;4.33;;;31.60;73.20;;;;;;5067623;28;20533;-80
2022/05/18 10:52:55;;;;;;;6.70;4.57;;;31.70;72.90;;;;;;5061993;28;20469;-81
2022/05/18 10:55:24;;;;;;;8.00;4.17;;;31.70;72.50;;;;;;5060837;28;20884;-80
2022/05/18 10:57:57;;;;;;;4.70;3.60;;;31.50;73.90;;;;;;5065134;28;20476;-80
2022/05/18 11:00:32;;;;;;;7.80;3.90;;;31.30;71.60;;;;;;5058654;28;20449;-81
2022/05/18 11:03:07;;;;;;;6.77;3.97;;;31.00;71.70;;;;;;5068013;28;21024;-81
2022/05/18 11:05:40;;;;;;;4.53;3.03;;;30.60;74.00;;;;;;5060296;28;20528;-81
2022/05/18 11:08:14;;;;;;;5.37;3.50;;;30.80;72.20;;;;;;5060343;28;20476;-80
2022/05/18 11:10:49;;;;;;;6.40;3.40;;;30.90;72.40;;;;;;5061276;28;20446;-80
2022/05/18 11:13:24;;;;;;;6.80;3.47;;;30.90;71.90;;;;;;5060932;28;20456;-81
2022/05/18 11:16:01;;;;;;;8.27;3.90;;;31.20;71.40;;;;;;5065952;28;20446;-82
2022/05/18 11:18:34;;;;;;;5.90;3.67;;;31.30;71.80;;;;;;5068894;28;20470;-81
2022/05/18 11:21:15;;;;;;;3.43;3.13;;;31.40;71.10;;;;;;5063861;28;20501;-80
2022/05/18 11:23:54;;;;;;;5.57;3.73;;;31.10;70.70;;;;;;5064124;28;20485;-80
2022/05/18 11:26:30;;;;;;;3.13;2.67;;;31.10;71.80;;;;;;5069152;28;20532;-81
2022/05/18 11:29:05;;;;;;;4.20;3.07;;;30.70;71.50;;;;;;5065591;28;20500;-80
2022/05/18 11:32:03;;;;;;;4.13;2.73;;;30.70;72.40;;;;;;5071224;28;20438;-80
2022/05/18 11:34:37;;;;;;;4.00;3.00;;;30.80;71.00;;;;;;5061020;28;20502;-79
2022/05/18 11:37:23;;;;;;;6.33;3.73;;;31.10;70.80;;;;;;5074357;28;20492;-81
2022/05/18 11:40:01;;;;;;;4.07;3.00;;;31.00;71.20;;;;;;5074696;28;20453;-80
2022/05/18 11:42:38;;;;;;;4.57;3.60;;;31.00;71.10;;;;;;5058319;28;20466;-80
2022/05/18 11:45:22;;;;;;;5.83;2.97;;;31.10;72.10;;;;;;5067481;28;20445;-81
2022/05/18 11:48:13;;;;;;;8.40;4.27;;;31.10;72.60;;;;;;5067108;28;20541;-83
2022/05/18 11:50:52;;;;;;;5.87;3.70;;;31.10;71.70;;;;;;5061797;28;20514;-82
2022/05/18 11:53:43;;;;;;;4.60;2.90;;;31.10;71.20;;;;;;5080415;28;20580;-79
2022/05/18 11:56:25;;;;;;;7.70;3.63;;;31.10;72.10;;;;;;5076711;28;20460;-80
2022/05/18 11:59:21;;;;;;;4.47;3.90;;;31.10;72.00;;;;;;5078446;28;20983;-79
2022/05/18 12:01:55;;;;;;;3.80;3.37;;;31.00;72.40;;;;;;5066837;28;20481;-79
2022/05/18 12:04:37;;;;;;;4.83;3.70;;;31.00;73.30;;;;;;5068147;28;20568;-78
2022/05/18 12:07:19;;;;;;;2.90;2.53;;;30.80;72.90;;;;;;5085554;28;20466;-80
2022/05/18 12:10:03;;;;;;;8.53;3.00;;;30.90;71.20;;;;;;5065526;28;20434;-78
2022/05/18 12:12:40;;;;;;;7.70;3.50;;;30.90;71.30;;;;;;5071755;28;20472;-79
2022/05/18 12:15:16;;;;;;;5.20;3.83;;;31.00;71.10;;;;;;5067919;28;20460;-80
2022/05/18 12:17:48;;;;;;;4.80;2.70;;;31.00;69.80;;;;;;5077340;28;20476;-79
2022/05/18 12:20:21;;;;;;;3.63;3.30;;;30.90;70.70;;;;;;5077224;28;20494;-79
2022/05/18 12:22:52;;;;;;;6.10;3.20;;;31.20;71.00;;;;;;5077295;28;20526;-79
2022/05/18 12:25:22;;;;;;;3.10;2.70;;;31.10;71.40;;;;;;5083405;28;20438;-80
2022/05/18 12:27:51;;;;;;;4.40;3.03;;;31.20;71.00;;;;;;5085252;28;20462;-82
2022/05/18 12:30:21;;;;;;;3.33;3.03;;;31.10;71.90;;;;;;5078662;28;20438;-81
2022/05/18 12:32:50;;;;;;;3.53;2.70;;;31.10;71.60;;;;;;5078654;28;20493;-81
2022/05/18 12:35:20;;;;;;;7.03;3.17;;;31.20;71.10;;;;;;5073888;28;20442;-81
2022/05/18 12:37:53;;;;;;;4.90;3.10;;;31.20;71.10;;;;;;5070325;28;20509;-80
2022/05/18 12:40:33;;;;;;;4.23;3.00;;;31.10;71.00;;;;;;5074792;28;20472;-81
2022/05/18 12:43:11;;;;;;;6.10;3.07;;;31.40;68.30;;;;;;5084412;28;20481;-80
2022/05/18 12:45:41;;;;;;;4.70;2.60;;;31.60;68.10;;;;;;5076366;28;20441;-81
2022/05/18 12:48:17;;;;;;;4.80;2.80;;;31.60;67.60;;;;;;5077374;28;20485;-80
2022/05/18 12:50:54;;;;;;;4.00;2.63;;;31.40;67.90;;;;;;5077573;28;20463;-80
2022/05/18 12:53:25;;;;;;;4.43;3.10;;;31.20;67.80;;;;;;5077564;28;20414;-81
2022/05/18 12:56:01;;;;;;;4.70;2.80;;;31.10;68.20;;;;;;5078203;28;20418;-80
2022/05/18 12:58:32;;;;;;;5.87;2.97;;;31.30;68.20;;;;;;5074958;28;20473;-80
2022/05/18 13:01:11;;;;;;;4.60;3.33;;;31.30;67.90;;;;;;5070284;28;20446;-80
2022/05/18 13:03:58;;;;;;;3.03;2.73;;;31.70;68.70;;;;;;5065346;28;20486;-80
2022/05/18 13:06:46;;;;;;;6.10;2.43;;;31.60;66.60;;;;;;5065825;28;20894;-80
2022/05/18 13:09:36;;;;;;;6.80;3.27;;;31.30;62.50;;;;;;5065421;28;20543;-79
2022/05/18 13:12:45;;;;;;;2.33;2.13;;;31.30;64.00;;;;;;5068006;28;20432;-80
2022/05/18 13:15:56;;;;;;;4.23;2.23;;;31.20;62.90;;;;;;5064508;28;20446;-80